sensor_id;sensor_type;location;lat;lon;timestamp;pressure;altitude;pressure_sealevel;temperature;humidity
39265;BME280;42646;51.910;7.724;2023-09-19T00:01:02;100080.19;;;16.35;100.00
39265;BME280;42646;51.910;7.724;2023-09-19T00:03:31;100088.63;;;16.32;100.00
39265;BME280;42646;51.910;7.724;2023-09-19T00:06:00;100088.16;;;16.28;100.00
39265;BME280;42646;51.910;7.724;2023-09-19T00:08:28;100092.91;;;16.26;100.00
39265;BME280;42646;51.910;7.724;2023-09-19T00:10:56;100090.13;;;16.20;100.00
39265;BME280;42646;51.910;7.724;2023-09-19T00:13:30;100101.22;;;16.17;100.00
39265;BME280;42646;51.910;7.724;2023-09-19T00:15:59;100103.09;;;16.16;100.00
39265;BME280;42646;51.910;7.724;2023-09-19T00:18:27;100109.84;;;16.12;100.00
39265;BME280;42646;51.910;7.724;2023-09-19T00:20:57;100115.41;;;16.11;100.00
39265;BME280;42646;51.910;7.724;2023-09-19T00:23:27;100110.44;;;16.08;100.00
39265;BME280;42646;51.910;7.724;2023-09-19T00:25:58;100112.84;;;16.02;100.00
39265;BME280;42646;51.910;7.724;2023-09-19T00:28:27;100110.72;;;15.98;100.00
39265;BME280;42646;51.910;7.724;2023-09-19T00:30:57;100122.47;;;15.97;100.00
39265;BME280;42646;51.910;7.724;2023-09-19T00:33:28;100118.47;;;15.93;100.00
39265;BME280;42646;51.910;7.724;2023-09-19T00:35:57;100118.38;;;15.86;100.00
39265;BME280;42646;51.910;7.724;2023-09-19T00:38:27;100126.81;;;15.83;100.00
39265;BME280;42646;51.910;7.724;2023-09-19T00:40:55;100125.13;;;15.82;100.00
39265;BME280;42646;51.910;7.724;2023-09-19T00:43:26;100130.69;;;15.81;100.00
39265;BME280;42646;51.910;7.724;2023-09-19T00:45:56;100135.22;;;15.80;100.00
39265;BME280;42646;51.910;7.724;2023-09-19T00:48:27;100130.88;;;15.79;100.00
39265;BME280;42646;51.910;7.724;2023-09-19T00:50:59;100143.81;;;15.75;100.00
39265;BME280;42646;51.910;7.724;2023-09-19T00:53:34;100145.66;;;15.75;100.00
39265;BME280;42646;51.910;7.724;2023-09-19T00:56:02;100152.16;;;15.81;100.00
39265;BME280;42646;51.910;7.724;2023-09-19T00:58:36;100148.75;;;15.72;100.00
39265;BME280;42646;51.910;7.724;2023-09-19T01:01:30;100148.75;;;15.72;100.00
39265;BME280;42646;51.910;7.724;2023-09-19T01:04:02;100151.03;;;15.75;100.00
39265;BME280;42646;51.910;7.724;2023-09-19T01:06:30;100157.41;;;15.74;100.00
39265;BME280;42646;51.910;7.724;2023-09-19T01:09:01;100150.41;;;15.73;100.00
39265;BME280;42646;51.910;7.724;2023-09-19T01:11:33;100150.41;;;15.73;100.00
39265;BME280;42646;51.910;7.724;2023-09-19T01:14:17;100147.91;;;15.71;100.00
39265;BME280;42646;51.910;7.724;2023-09-19T01:16:54;100161.66;;;15.68;100.00
39265;BME280;42646;51.910;7.724;2023-09-19T01:22:45;100174.25;;;15.68;100.00
39265;BME280;42646;51.910;7.724;2023-09-19T01:25:50;100168.25;;;15.66;100.00
39265;BME280;42646;51.910;7.724;2023-09-19T01:28:30;100176.28;;;15.66;100.00
39265;BME280;42646;51.910;7.724;2023-09-19T01:31:09;100167.56;;;15.64;100.00
39265;BME280;42646;51.910;7.724;2023-09-19T01:33:55;100172.94;;;15.64;100.00
39265;BME280;42646;51.910;7.724;2023-09-19T01:36:29;100173.13;;;15.62;100.00
39265;BME280;42646;51.910;7.724;2023-09-19T01:39:00;100184.00;;;15.61;100.00
39265;BME280;42646;51.910;7.724;2023-09-19T01:41:50;100177.81;;;15.60;100.00
39265;BME280;42646;51.910;7.724;2023-09-19T01:44:25;100179.66;;;15.60;100.00
39265;BME280;42646;51.910;7.724;2023-09-19T01:47:04;100187.88;;;15.58;100.00
39265;BME280;42646;51.910;7.724;2023-09-19T01:49:42;100195.91;;;15.58;100.00
39265;BME280;42646;51.910;7.724;2023-09-19T01:52:14;100192.41;;;15.58;100.00
39265;BME280;42646;51.910;7.724;2023-09-19T01:54:48;100194.25;;;15.57;100.00
39265;BME280;42646;51.910;7.724;2023-09-19T01:57:25;100188.72;;;15.59;100.00
39265;BME280;42646;51.910;7.724;2023-09-19T02:00:01;100202.13;;;15.59;100.00
39265;BME280;42646;51.910;7.724;2023-09-19T02:02:40;100190.94;;;15.55;100.00
39265;BME280;42646;51.910;7.724;2023-09-19T02:05:11;100195.09;;;15.58;100.00
39265;BME280;42646;51.910;7.724;2023-09-19T02:07:39;100195.09;;;15.58;100.00
39265;BME280;42646;51.910;7.724;2023-09-19T02:10:07;100190.09;;;15.55;100.00
39265;BME280;42646;51.910;7.724;2023-09-19T02:12:36;100195.63;;;15.53;100.00
39265;BME280;42646;51.910;7.724;2023-09-19T02:15:05;100194.63;;;15.54;100.00
39265;BME280;42646;51.910;7.724;2023-09-19T02:17:36;100200.84;;;15.55;100.00
39265;BME280;42646;51.910;7.724;2023-09-19T02:20:07;100201.47;;;15.57;100.00
39265;BME280;42646;51.910;7.724;2023-09-19T02:22:36;100200.53;;;15.49;100.00
39265;BME280;42646;51.910;7.724;2023-09-19T02:25:06;100201.84;;;15.54;100.00
39265;BME280;42646;51.910;7.724;2023-09-19T02:27:35;100204.25;;;15.48;100.00
39265;BME280;42646;51.910;7.724;2023-09-19T02:30:05;100202.38;;;15.49;100.00
39265;BME280;42646;51.910;7.724;2023-09-19T02:32:33;100207.06;;;15.47;100.00
39265;BME280;42646;51.910;7.724;2023-09-19T02:35:08;100209.75;;;15.47;100.00
39265;BME280;42646;51.910;7.724;2023-09-19T02:37:38;100209.13;;;15.45;100.00
39265;BME280;42646;51.910;7.724;2023-09-19T02:40:07;100221.88;;;15.43;100.00
39265;BME280;42646;51.910;7.724;2023-09-19T02:42:47;100220.22;;;15.42;100.00
39265;BME280;42646;51.910;7.724;2023-09-19T02:45:16;100226.94;;;15.38;100.00
39265;BME280;42646;51.910;7.724;2023-09-19T02:47:47;100217.41;;;15.35;100.00
39265;BME280;42646;51.910;7.724;2023-09-19T02:50:17;100229.13;;;15.34;100.00
39265;BME280;42646;51.910;7.724;2023-09-19T02:52:48;100230.16;;;15.33;100.00
39265;BME280;42646;51.910;7.724;2023-09-19T02:55:17;100234.03;;;15.31;100.00
39265;BME280;42646;51.910;7.724;2023-09-19T02:57:46;100232.53;;;15.28;100.00
39265;BME280;42646;51.910;7.724;2023-09-19T03:00:14;100240.94;;;15.25;100.00
39265;BME280;42646;51.910;7.724;2023-09-19T03:02:43;100242.13;;;15.22;100.00
39265;BME280;42646;51.910;7.724;2023-09-19T03:05:14;100238.59;;;15.22;100.00
39265;BME280;42646;51.910;7.724;2023-09-19T03:07:45;100240.84;;;15.18;100.00
39265;BME280;42646;51.910;7.724;2023-09-19T03:10:14;100242.84;;;15.16;100.00
39265;BME280;42646;51.910;7.724;2023-09-19T03:12:43;100240.34;;;15.15;100.00
39265;BME280;42646;51.910;7.724;2023-09-19T03:15:13;100229.97;;;15.12;100.00
39265;BME280;42646;51.910;7.724;2023-09-19T03:17:43;100238.19;;;15.10;100.00
39265;BME280;42646;51.910;7.724;2023-09-19T03:20:12;100233.19;;;15.07;100.00
39265;BME280;42646;51.910;7.724;2023-09-19T03:22:45;100248.97;;;15.02;100.00
39265;BME280;42646;51.910;7.724;2023-09-19T03:25:13;100247.31;;;15.01;100.00
39265;BME280;42646;51.910;7.724;2023-09-19T03:27:47;100244.31;;;14.96;100.00
39265;BME280;42646;51.910;7.724;2023-09-19T03:30:15;100249.00;;;14.94;100.00
39265;BME280;42646;51.910;7.724;2023-09-19T03:32:46;100245.03;;;14.90;100.00
39265;BME280;42646;51.910;7.724;2023-09-19T03:35:17;100246.38;;;14.86;100.00
39265;BME280;42646;51.910;7.724;2023-09-19T03:37:48;100255.75;;;14.82;100.00
39265;BME280;42646;51.910;7.724;2023-09-19T03:40:16;100248.94;;;14.79;100.00
39265;BME280;42646;51.910;7.724;2023-09-19T03:42:47;100254.63;;;14.76;100.00
39265;BME280;42646;51.910;7.724;2023-09-19T03:45:15;100257.66;;;14.73;100.00
39265;BME280;42646;51.910;7.724;2023-09-19T03:47:48;100251.81;;;14.69;100.00
39265;BME280;42646;51.910;7.724;2023-09-19T03:50:20;100260.84;;;14.68;100.00
39265;BME280;42646;51.910;7.724;2023-09-19T03:52:50;100251.50;;;14.64;100.00
39265;BME280;42646;51.910;7.724;2023-09-19T03:55:18;100251.88;;;14.61;100.00
39265;BME280;42646;51.910;7.724;2023-09-19T03:57:48;100249.69;;;14.57;100.00
39265;BME280;42646;51.910;7.724;2023-09-19T04:00:16;100251.09;;;14.53;100.00
39265;BME280;42646;51.910;7.724;2023-09-19T04:02:48;100256.75;;;14.50;100.00
39265;BME280;42646;51.910;7.724;2023-09-19T04:05:17;100256.94;;;14.48;100.00
39265;BME280;42646;51.910;7.724;2023-09-19T04:07:45;100259.28;;;14.43;100.00
39265;BME280;42646;51.910;7.724;2023-09-19T04:10:19;100265.78;;;14.40;100.00
39265;BME280;42646;51.910;7.724;2023-09-19T04:12:51;100264.47;;;14.36;100.00
39265;BME280;42646;51.910;7.724;2023-09-19T04:15:47;100256.78;;;14.33;100.00
39265;BME280;42646;51.910;7.724;2023-09-19T04:18:17;100262.50;;;14.30;100.00
39265;BME280;42646;51.910;7.724;2023-09-19T04:20:48;100271.69;;;14.28;100.00
39265;BME280;42646;51.910;7.724;2023-09-19T04:23:16;100267.53;;;14.25;100.00
39265;BME280;42646;51.910;7.724;2023-09-19T04:25:47;100276.72;;;14.23;100.00
39265;BME280;42646;51.910;7.724;2023-09-19T04:28:15;100274.41;;;14.20;100.00
39265;BME280;42646;51.910;7.724;2023-09-19T04:30:43;100277.41;;;14.16;100.00
39265;BME280;42646;51.910;7.724;2023-09-19T04:33:11;100282.09;;;14.14;100.00
39265;BME280;42646;51.910;7.724;2023-09-19T04:35:42;100276.25;;;14.11;100.00
39265;BME280;42646;51.910;7.724;2023-09-19T04:38:12;100281.13;;;14.07;100.00
39265;BME280;42646;51.910;7.724;2023-09-19T04:40:41;100283.97;;;14.06;100.00
39265;BME280;42646;51.910;7.724;2023-09-19T04:43:10;100287.78;;;14.03;100.00
39265;BME280;42646;51.910;7.724;2023-09-19T04:45:39;100297.00;;;14.01;100.00
39265;BME280;42646;51.910;7.724;2023-09-19T04:48:10;100292.81;;;13.98;100.00
39265;BME280;42646;51.910;7.724;2023-09-19T04:50:41;100291.50;;;13.94;100.00
39265;BME280;42646;51.910;7.724;2023-09-19T04:53:10;100302.34;;;13.93;100.00
39265;BME280;42646;51.910;7.724;2023-09-19T04:55:37;100303.53;;;13.90;100.00
39265;BME280;42646;51.910;7.724;2023-09-19T04:58:05;100299.50;;;13.86;100.00
39265;BME280;42646;51.910;7.724;2023-09-19T05:00:34;100293.50;;;13.84;100.00
39265;BME280;42646;51.910;7.724;2023-09-19T05:03:04;100293.84;;;13.81;100.00
39265;BME280;42646;51.910;7.724;2023-09-19T05:05:32;100298.69;;;13.77;100.00
39265;BME280;42646;51.910;7.724;2023-09-19T05:08:05;100303.34;;;13.75;100.00
39265;BME280;42646;51.910;7.724;2023-09-19T05:10:36;100298.38;;;13.72;100.00
39265;BME280;42646;51.910;7.724;2023-09-19T05:13:29;100316.72;;;13.67;100.00
39265;BME280;42646;51.910;7.724;2023-09-19T05:16:01;100328.59;;;13.65;100.00
39265;BME280;42646;51.910;7.724;2023-09-19T05:18:54;100327.09;;;13.62;100.00
39265;BME280;42646;51.910;7.724;2023-09-19T05:21:22;100337.13;;;13.60;100.00
39265;BME280;42646;51.910;7.724;2023-09-19T05:23:51;100340.09;;;13.57;100.00
39265;BME280;42646;51.910;7.724;2023-09-19T05:26:19;100350.13;;;13.55;100.00
39265;BME280;42646;51.910;7.724;2023-09-19T05:28:47;100353.13;;;13.52;100.00
39265;BME280;42646;51.910;7.724;2023-09-19T05:31:17;100350.63;;;13.50;100.00
39265;BME280;42646;51.910;7.724;2023-09-19T05:33:45;100355.13;;;13.50;100.00
39265;BME280;42646;51.910;7.724;2023-09-19T05:36:13;100362.50;;;13.48;100.00
39265;BME280;42646;51.910;7.724;2023-09-19T05:39:08;100368.97;;;13.45;100.00
39265;BME280;42646;51.910;7.724;2023-09-19T05:41:36;100367.31;;;13.44;100.00
39265;BME280;42646;51.910;7.724;2023-09-19T05:44:06;100361.97;;;13.44;100.00
39265;BME280;42646;51.910;7.724;2023-09-19T05:46:35;100369.31;;;13.42;100.00
39265;BME280;42646;51.910;7.724;2023-09-19T05:49:03;100370.16;;;13.43;100.00
39265;BME280;42646;51.910;7.724;2023-09-19T05:51:31;100365.81;;;13.42;100.00
39265;BME280;42646;51.910;7.724;2023-09-19T05:54:23;100355.13;;;13.42;100.00
39265;BME280;42646;51.910;7.724;2023-09-19T05:56:51;100365.81;;;13.42;100.00
39265;BME280;42646;51.910;7.724;2023-09-19T05:59:19;100363.97;;;13.42;100.00
39265;BME280;42646;51.910;7.724;2023-09-19T06:01:48;100358.47;;;13.44;100.00
39265;BME280;42646;51.910;7.724;2023-09-19T06:04:17;100357.31;;;13.46;100.00
39265;BME280;42646;51.910;7.724;2023-09-19T06:06:47;100356.97;;;13.49;100.00
39265;BME280;42646;51.910;7.724;2023-09-19T06:09:16;100354.81;;;13.53;100.00
39265;BME280;42646;51.910;7.724;2023-09-19T06:11:49;100356.13;;;13.57;100.00
39265;BME280;42646;51.910;7.724;2023-09-19T06:14:18;100358.50;;;13.60;100.00
39265;BME280;42646;51.910;7.724;2023-09-19T06:16:49;100358.00;;;13.65;100.00
39265;BME280;42646;51.910;7.724;2023-09-19T06:19:17;100360.03;;;13.71;100.00
39265;BME280;42646;51.910;7.724;2023-09-19T06:21:53;100359.50;;;13.75;100.00
39265;BME280;42646;51.910;7.724;2023-09-19T06:24:21;100363.53;;;13.79;100.00
39265;BME280;42646;51.910;7.724;2023-09-19T06:27:14;100356.84;;;13.83;100.00
39265;BME280;42646;51.910;7.724;2023-09-19T06:29:43;100364.38;;;13.88;100.00
39265;BME280;42646;51.910;7.724;2023-09-19T06:32:15;100365.69;;;13.92;100.00
39265;BME280;42646;51.910;7.724;2023-09-19T06:34:42;100366.38;;;13.94;100.00
39265;BME280;42646;51.910;7.724;2023-09-19T06:37:12;100365.03;;;13.98;100.00
39265;BME280;42646;51.910;7.724;2023-09-19T06:39:40;100363.69;;;14.02;100.00
39265;BME280;42646;51.910;7.724;2023-09-19T06:42:08;100361.69;;;14.04;100.00
39265;BME280;42646;51.910;7.724;2023-09-19T06:44:37;100359.34;;;14.09;100.00
39265;BME280;42646;51.910;7.724;2023-09-19T06:47:06;100366.03;;;14.13;100.00
39265;BME280;42646;51.910;7.724;2023-09-19T06:49:35;100355.81;;;14.17;100.00
39265;BME280;42646;51.910;7.724;2023-09-19T06:52:05;100361.84;;;14.19;100.00
39265;BME280;42646;51.910;7.724;2023-09-19T06:54:33;100364.03;;;14.24;100.00
39265;BME280;42646;51.910;7.724;2023-09-19T06:57:03;100369.84;;;14.27;100.00
39265;BME280;42646;51.910;7.724;2023-09-19T06:59:30;100374.88;;;14.30;100.00
39265;BME280;42646;51.910;7.724;2023-09-19T07:01:59;100377.22;;;14.33;100.00
39265;BME280;42646;51.910;7.724;2023-09-19T07:04:28;100380.38;;;14.37;100.00
39265;BME280;42646;51.910;7.724;2023-09-19T07:06:57;100389.75;;;14.41;100.00
39265;BME280;42646;51.910;7.724;2023-09-19T07:09:24;100389.41;;;14.44;100.00
39265;BME280;42646;51.910;7.724;2023-09-19T07:11:54;100385.56;;;14.47;100.00
39265;BME280;42646;51.910;7.724;2023-09-19T07:14:22;100394.28;;;14.49;100.00
39265;BME280;42646;51.910;7.724;2023-09-19T07:16:50;100401.63;;;14.55;100.00
39265;BME280;42646;51.910;7.724;2023-09-19T07:19:18;100404.78;;;14.58;100.00
39265;BME280;42646;51.910;7.724;2023-09-19T07:21:46;100415.81;;;14.63;100.00
39265;BME280;42646;51.910;7.724;2023-09-19T07:24:20;100418.00;;;14.68;100.00
39265;BME280;42646;51.910;7.724;2023-09-19T07:26:49;100408.13;;;14.77;100.00
39265;BME280;42646;51.910;7.724;2023-09-19T07:29:17;100411.78;;;14.84;100.00
39265;BME280;42646;51.910;7.724;2023-09-19T07:31:45;100405.06;;;14.88;100.00
39265;BME280;42646;51.910;7.724;2023-09-19T07:34:14;100407.53;;;14.98;100.00
39265;BME280;42646;51.910;7.724;2023-09-19T07:36:41;100409.19;;;15.07;100.00
39265;BME280;42646;51.910;7.724;2023-09-19T07:39:10;100413.50;;;15.16;100.00
39265;BME280;42646;51.910;7.724;2023-09-19T07:41:50;100415.16;;;15.25;100.00
39265;BME280;42646;51.910;7.724;2023-09-19T07:44:18;100415.28;;;15.32;100.00
39265;BME280;42646;51.910;7.724;2023-09-19T07:46:46;100404.69;;;15.38;100.00
39265;BME280;42646;51.910;7.724;2023-09-19T07:49:17;100406.66;;;15.44;100.00
39265;BME280;42646;51.910;7.724;2023-09-19T07:51:47;100398.75;;;15.51;100.00
39265;BME280;42646;51.910;7.724;2023-09-19T07:54:15;100392.03;;;15.55;100.00
39265;BME280;42646;51.910;7.724;2023-09-19T07:56:43;100402.03;;;15.61;100.00
39265;BME280;42646;51.910;7.724;2023-09-19T07:59:15;100398.19;;;15.64;100.00
39265;BME280;42646;51.910;7.724;2023-09-19T08:01:42;100398.69;;;15.67;100.00
39265;BME280;42646;51.910;7.724;2023-09-19T08:04:12;100404.16;;;15.74;100.00
39265;BME280;42646;51.910;7.724;2023-09-19T08:06:40;100408.00;;;15.80;100.00
39265;BME280;42646;51.910;7.724;2023-09-19T08:09:08;100416.53;;;15.83;100.00
39265;BME280;42646;51.910;7.724;2023-09-19T08:11:37;100417.28;;;15.92;100.00
39265;BME280;42646;51.910;7.724;2023-09-19T08:14:06;100408.72;;;15.96;100.00
39265;BME280;42646;51.910;7.724;2023-09-19T08:16:37;100409.66;;;16.03;100.00
39265;BME280;42646;51.910;7.724;2023-09-19T08:19:05;100418.84;;;16.09;99.97
39265;BME280;42646;51.910;7.724;2023-09-19T08:21:33;100422.16;;;16.11;99.51
39265;BME280;42646;51.910;7.724;2023-09-19T08:24:01;100425.97;;;16.17;99.55
39265;BME280;42646;51.910;7.724;2023-09-19T08:26:31;100426.38;;;16.28;98.54
39265;BME280;42646;51.910;7.724;2023-09-19T08:28:59;100436.00;;;16.23;98.28
39265;BME280;42646;51.910;7.724;2023-09-19T08:31:32;100431.13;;;16.26;98.62
39265;BME280;42646;51.910;7.724;2023-09-19T08:34:05;100435.13;;;16.31;98.59
39265;BME280;42646;51.910;7.724;2023-09-19T08:36:33;100434.19;;;16.38;97.78
39265;BME280;42646;51.910;7.724;2023-09-19T08:39:01;100436.50;;;16.41;97.51
39265;BME280;42646;51.910;7.724;2023-09-19T08:41:29;100442.53;;;16.43;97.61
39265;BME280;42646;51.910;7.724;2023-09-19T08:43:58;100436.78;;;16.46;96.90
39265;BME280;42646;51.910;7.724;2023-09-19T08:46:30;100435.44;;;16.50;96.96
39265;BME280;42646;51.910;7.724;2023-09-19T08:49:10;100441.09;;;16.55;97.57
39265;BME280;42646;51.910;7.724;2023-09-19T08:51:45;100435.00;;;16.62;97.79
39265;BME280;42646;51.910;7.724;2023-09-19T08:54:21;100438.78;;;16.67;97.77
39265;BME280;42646;51.910;7.724;2023-09-19T08:57:15;100433.34;;;16.75;97.05
39265;BME280;42646;51.910;7.724;2023-09-19T08:59:48;100443.75;;;16.78;97.08
39265;BME280;42646;51.910;7.724;2023-09-19T09:02:18;100436.97;;;16.82;96.35
39265;BME280;42646;51.910;7.724;2023-09-19T09:04:49;100443.84;;;16.85;95.55
39265;BME280;42646;51.910;7.724;2023-09-19T09:07:17;100457.28;;;16.85;94.28
39265;BME280;42646;51.910;7.724;2023-09-19T09:09:51;100447.66;;;16.91;94.59
39265;BME280;42646;51.910;7.724;2023-09-19T09:12:20;100448.09;;;16.94;94.77
39265;BME280;42646;51.910;7.724;2023-09-19T09:14:51;100441.97;;;17.00;94.61
39265;BME280;42646;51.910;7.724;2023-09-19T09:17:19;100443.09;;;17.06;94.83
39265;BME280;42646;51.910;7.724;2023-09-19T09:19:49;100434.28;;;17.12;93.45
39265;BME280;42646;51.910;7.724;2023-09-19T09:22:18;100434.84;;;17.22;93.81
39265;BME280;42646;51.910;7.724;2023-09-19T09:24:51;100440.78;;;17.32;93.87
39265;BME280;42646;51.910;7.724;2023-09-19T09:27:20;100443.75;;;17.38;91.13
39265;BME280;42646;51.910;7.724;2023-09-19T09:29:51;100426.19;;;17.42;91.89
39265;BME280;42646;51.910;7.724;2023-09-19T09:32:23;100430.44;;;17.51;90.61
39265;BME280;42646;51.910;7.724;2023-09-19T09:34:55;100425.50;;;17.54;90.96
39265;BME280;42646;51.910;7.724;2023-09-19T09:37:28;100425.13;;;17.57;91.41
39265;BME280;42646;51.910;7.724;2023-09-19T09:39:59;100424.09;;;17.58;89.90
39265;BME280;42646;51.910;7.724;2023-09-19T09:42:46;100419.47;;;17.67;89.65
39265;BME280;42646;51.910;7.724;2023-09-19T09:45:15;100412.38;;;17.66;90.09
39265;BME280;42646;51.910;7.724;2023-09-19T09:47:44;100418.03;;;17.71;89.66
39265;BME280;42646;51.910;7.724;2023-09-19T09:50:28;100417.88;;;17.73;89.54
39265;BME280;42646;51.910;7.724;2023-09-19T09:53:20;100419.06;;;17.85;88.37
39265;BME280;42646;51.910;7.724;2023-09-19T09:55:59;100420.53;;;17.87;87.60
39265;BME280;42646;51.910;7.724;2023-09-19T09:58:27;100416.81;;;17.88;88.64
39265;BME280;42646;51.910;7.724;2023-09-19T10:00:57;100425.13;;;17.94;88.55
39265;BME280;42646;51.910;7.724;2023-09-19T10:03:34;100426.22;;;17.99;88.65
39265;BME280;42646;51.910;7.724;2023-09-19T10:06:10;100426.28;;;18.06;89.49
39265;BME280;42646;51.910;7.724;2023-09-19T10:09:03;100425.53;;;18.12;88.08
39265;BME280;42646;51.910;7.724;2023-09-19T10:11:42;100422.63;;;18.13;86.93
39265;BME280;42646;51.910;7.724;2023-09-19T10:14:11;100417.06;;;18.15;87.13
39265;BME280;42646;51.910;7.724;2023-09-19T10:16:47;100422.25;;;18.17;87.35
39265;BME280;42646;51.910;7.724;2023-09-19T10:19:21;100420.41;;;18.17;86.26
39265;BME280;42646;51.910;7.724;2023-09-19T10:21:55;100427.06;;;18.21;86.46
39265;BME280;42646;51.910;7.724;2023-09-19T10:24:25;100421.94;;;18.26;86.56
39265;BME280;42646;51.910;7.724;2023-09-19T10:26:55;100419.66;;;18.30;85.75
39265;BME280;42646;51.910;7.724;2023-09-19T10:29:24;100419.94;;;18.35;84.88
39265;BME280;42646;51.910;7.724;2023-09-19T10:31:56;100423.50;;;18.42;84.26
39265;BME280;42646;51.910;7.724;2023-09-19T10:34:26;100413.19;;;18.46;83.53
39265;BME280;42646;51.910;7.724;2023-09-19T10:37:02;100414.84;;;18.47;84.08
39265;BME280;42646;51.910;7.724;2023-09-19T10:39:33;100412.78;;;18.49;83.25
39265;BME280;42646;51.910;7.724;2023-09-19T10:42:03;100412.97;;;18.47;83.07
39265;BME280;42646;51.910;7.724;2023-09-19T10:44:33;100401.56;;;18.45;82.46
39265;BME280;42646;51.910;7.724;2023-09-19T10:47:01;100404.25;;;18.45;81.79
39265;BME280;42646;51.910;7.724;2023-09-19T10:49:32;100401.75;;;18.43;81.13
39265;BME280;42646;51.910;7.724;2023-09-19T10:52:05;100402.78;;;18.42;80.85
39265;BME280;42646;51.910;7.724;2023-09-19T10:54:38;100412.94;;;18.40;81.13
39265;BME280;42646;51.910;7.724;2023-09-19T10:57:12;100407.13;;;18.43;81.36
39265;BME280;42646;51.910;7.724;2023-09-19T11:00:01;100394.13;;;18.47;81.03
39265;BME280;42646;51.910;7.724;2023-09-19T11:03:17;100397.88;;;18.53;81.31
39265;BME280;42646;51.910;7.724;2023-09-19T11:06:04;100398.75;;;18.60;80.66
39265;BME280;42646;51.910;7.724;2023-09-19T11:08:53;100399.22;;;18.63;80.31
39265;BME280;42646;51.910;7.724;2023-09-19T11:11:41;100383.88;;;18.64;80.28
39265;BME280;42646;51.910;7.724;2023-09-19T11:17:41;100401.97;;;18.70;78.61
39265;BME280;42646;51.910;7.724;2023-09-19T11:20:23;100416.28;;;18.71;77.64
39265;BME280;42646;51.910;7.724;2023-09-19T11:23:19;100410.91;;;18.71;76.59
39265;BME280;42646;51.910;7.724;2023-09-19T11:25:52;100407.56;;;18.68;76.44
39265;BME280;42646;51.910;7.724;2023-09-19T11:28:31;100421.66;;;18.71;77.38
39265;BME280;42646;51.910;7.724;2023-09-19T11:31:41;100412.47;;;18.65;76.01
39265;BME280;42646;51.910;7.724;2023-09-19T11:34:39;100402.34;;;18.67;77.81
39265;BME280;42646;51.910;7.724;2023-09-19T11:40:37;100398.94;;;18.80;78.17
39265;BME280;42646;51.910;7.724;2023-09-19T11:43:29;100399.56;;;18.82;76.48
39265;BME280;42646;51.910;7.724;2023-09-19T11:46:08;100398.31;;;18.84;76.89
39265;BME280;42646;51.910;7.724;2023-09-19T11:48:40;100397.38;;;18.99;76.10
39265;BME280;42646;51.910;7.724;2023-09-19T11:51:15;100391.34;;;18.97;74.21
39265;BME280;42646;51.910;7.724;2023-09-19T11:53:46;100401.75;;;19.00;74.24
39265;BME280;42646;51.910;7.724;2023-09-19T11:56:16;100392.00;;;18.99;74.72
39265;BME280;42646;51.910;7.724;2023-09-19T11:58:49;100391.56;;;19.02;74.61
39265;BME280;42646;51.910;7.724;2023-09-19T12:01:25;100387.00;;;19.02;74.51
39265;BME280;42646;51.910;7.724;2023-09-19T12:04:33;100387.47;;;19.06;74.74
39265;BME280;42646;51.910;7.724;2023-09-19T12:07:07;100385.38;;;19.08;74.65
39265;BME280;42646;51.910;7.724;2023-09-19T12:09:39;100383.34;;;19.10;73.85
39265;BME280;42646;51.910;7.724;2023-09-19T12:12:10;100378.16;;;19.15;74.14
39265;BME280;42646;51.910;7.724;2023-09-19T12:14:47;100375.69;;;19.20;74.01
39265;BME280;42646;51.910;7.724;2023-09-19T12:17:15;100370.72;;;19.24;74.55
39265;BME280;42646;51.910;7.724;2023-09-19T12:19:49;100381.75;;;19.29;74.01
39265;BME280;42646;51.910;7.724;2023-09-19T12:22:20;100379.25;;;19.27;72.26
39265;BME280;42646;51.910;7.724;2023-09-19T12:24:48;100373.22;;;19.32;71.79
39265;BME280;42646;51.910;7.724;2023-09-19T12:27:17;100375.09;;;19.31;72.00
39265;BME280;42646;51.910;7.724;2023-09-19T12:29:47;100372.41;;;19.31;71.75
39265;BME280;42646;51.910;7.724;2023-09-19T12:32:16;100370.38;;;19.33;71.99
39265;BME280;42646;51.910;7.724;2023-09-19T12:34:52;100362.28;;;19.33;71.83
39265;BME280;42646;51.910;7.724;2023-09-19T12:37:21;100358.72;;;19.33;71.33
39265;BME280;42646;51.910;7.724;2023-09-19T12:40:04;100361.84;;;19.36;71.23
39265;BME280;42646;51.910;7.724;2023-09-19T12:42:43;100355.41;;;19.37;71.19
39265;BME280;42646;51.910;7.724;2023-09-19T12:45:13;100350.25;;;19.42;70.76
39265;BME280;42646;51.910;7.724;2023-09-19T12:50:59;100347.78;;;19.47;70.73
39265;BME280;42646;51.910;7.724;2023-09-19T12:53:28;100343.00;;;19.49;71.60
39265;BME280;42646;51.910;7.724;2023-09-19T12:56:00;100351.09;;;19.56;71.35
39265;BME280;42646;51.910;7.724;2023-09-19T12:58:28;100345.34;;;19.59;71.21
39265;BME280;42646;51.910;7.724;2023-09-19T13:01:14;100346.78;;;19.62;69.94
39265;BME280;42646;51.910;7.724;2023-09-19T13:03:43;100353.66;;;19.64;69.82
39265;BME280;42646;51.910;7.724;2023-09-19T13:06:12;100351.78;;;19.65;69.62
39265;BME280;42646;51.910;7.724;2023-09-19T13:08:44;100359.44;;;19.61;70.29
39265;BME280;42646;51.910;7.724;2023-09-19T13:11:17;100353.22;;;19.61;69.85
39265;BME280;42646;51.910;7.724;2023-09-19T13:16:59;100362.78;;;19.63;69.10
39265;BME280;42646;51.910;7.724;2023-09-19T13:19:38;100366.50;;;19.62;69.46
39265;BME280;42646;51.910;7.724;2023-09-19T13:22:42;100360.28;;;19.68;70.14
39265;BME280;42646;51.910;7.724;2023-09-19T13:25:15;100343.28;;;19.74;70.71
39265;BME280;42646;51.910;7.724;2023-09-19T13:27:45;100356.81;;;19.81;70.35